Time;durP1;ratioP1;P1;durP2;ratioP2;P2;SDS_P1;SDS_P2;PMS_P1;PMS_P2;Temp;Humidity;BMP_temperature;BMP_pressure;BME280_temperature;BME280_humidity;BME280_pressure;Samples;Min_cycle;Max_cycle;Signal;HPM_P1;HPM_P2
2022/10/08 00:01:28;;;;;;;10.93;6.75;;;16.30;99.90;;;19.21;55.49;97867.66;5025182;28;20240;-50
2022/10/08 00:03:56;;;;;;;11.27;6.63;;;16.30;99.90;;;19.24;55.36;97867.25;5025530;28;20048;-51
2022/10/08 00:06:28;;;;;;;9.32;7.00;;;16.30;99.90;;;19.26;55.39;97873.25;5025070;28;20056;-48
2022/10/08 00:09:01;;;;;;;11.45;6.68;;;16.30;99.90;;;19.21;55.33;97873.91;5025699;28;20050;-50
2022/10/08 00:11:33;;;;;;;8.85;7.30;;;16.30;99.90;;;19.22;55.33;97878.25;5024954;28;20042;-51
2022/10/08 00:14:02;;;;;;;8.30;7.17;;;16.30;99.90;;;19.25;55.14;97871.59;5024356;28;20052;-48
2022/10/08 00:16:35;;;;;;;10.07;6.13;;;16.30;99.90;;;19.21;55.31;97873.91;5024467;28;20225;-50
2022/10/08 00:19:11;;;;;;;10.65;7.15;;;16.20;99.90;;;19.23;55.22;97870.97;5024151;28;20046;-49
2022/10/08 00:21:42;;;;;;;9.10;6.88;;;16.20;99.90;;;19.20;55.24;97869.53;5024874;28;20052;-48
2022/10/08 00:24:16;;;;;;;7.75;6.32;;;16.30;99.90;;;19.24;55.28;97875.34;5025021;28;20045;-47
2022/10/08 00:26:45;;;;;;;8.80;6.35;;;16.30;99.90;;;19.21;55.21;97875.75;5024484;28;20048;-48
2022/10/08 00:29:17;;;;;;;10.02;6.47;;;16.20;99.90;;;19.20;55.38;97877.63;5024068;28;20050;-49
2022/10/08 00:31:47;;;;;;;10.02;6.78;;;16.20;99.90;;;19.19;55.31;97870.59;5023683;28;20236;-48
2022/10/08 00:34:20;;;;;;;9.50;7.70;;;16.20;99.90;;;19.20;55.27;97876.81;5025678;28;20050;-47
2022/10/08 00:36:54;;;;;;;12.77;6.32;;;16.30;99.90;;;19.25;55.28;97877.84;5024232;28;20076;-48
2022/10/08 00:39:24;;;;;;;15.45;7.07;;;16.30;99.90;;;19.24;55.26;97873.47;5024968;28;20052;-50
2022/10/08 00:41:54;;;;;;;8.95;5.93;;;16.20;99.90;;;19.20;55.23;97879.50;5025322;28;20054;-52
2022/10/08 00:44:50;;;;;;;7.97;6.35;;;16.20;99.90;;;19.18;55.04;97863.50;5024881;28;20048;-51
2022/10/08 00:47:32;;;;;;;8.98;6.90;;;16.20;99.90;;;19.20;55.28;97861.44;5024577;28;20045;-46
2022/10/08 00:50:28;;;;;;;9.93;6.30;;;16.20;99.90;;;19.21;55.23;97862.25;5024914;28;20248;-47
2022/10/08 00:53:07;;;;;;;9.75;5.88;;;16.20;99.90;;;19.22;55.00;97864.75;5024438;28;20054;-51
2022/10/08 00:55:37;;;;;;;10.32;5.93;;;16.20;99.90;;;19.21;55.10;97857.72;5023489;28;20053;-50
2022/10/08 00:58:20;;;;;;;10.73;5.95;;;16.20;99.90;;;19.23;55.20;97861.03;5022772;28;20166;-51
2022/10/08 01:00:49;;;;;;;9.00;5.80;;;16.30;99.90;;;19.22;55.22;97864.75;5023009;28;20050;-48
2022/10/08 01:03:17;;;;;;;10.05;5.78;;;16.30;99.90;;;19.21;55.10;97851.47;5024696;28;20057;-47
2022/10/08 01:06:29;;;;;;;9.57;6.60;;;16.30;99.90;;;19.23;55.00;97849.38;5024384;28;20053;-51
2022/10/08 01:09:11;;;;;;;8.82;5.80;;;16.30;99.90;;;19.26;55.06;97840.88;5025502;28;20068;-49
2022/10/08 01:12:16;;;;;;;9.52;6.95;;;16.30;99.90;;;19.26;54.96;97841.69;5024415;28;20273;-47
2022/10/08 01:15:05;;;;;;;9.77;6.35;;;16.30;99.90;;;19.29;55.03;97848.56;5022974;28;20352;-51
2022/10/08 01:17:47;;;;;;;7.45;6.22;;;16.30;99.90;;;19.28;54.94;97839.59;5022833;28;20045;-52
2022/10/08 01:21:01;;;;;;;6.50;5.57;;;16.30;99.90;;;19.29;54.91;97843.16;5024816;28;20049;-49
2022/10/08 01:24:05;;;;;;;7.30;5.50;;;16.30;99.70;;;19.29;54.89;97843.16;5041171;28;20059;-51
2022/10/08 01:27:03;;;;;;;;;;;16.30;99.90;;;19.39;54.67;97840.00;5027901;28;20378;-48
2022/10/08 01:29:43;;;;;;;9.43;6.07;;;16.30;99.90;;;19.30;54.78;97836.69;5022795;28;19928;-49
2022/10/08 01:32:21;;;;;;;7.85;5.43;;;16.20;99.90;;;19.24;55.04;97832.16;5022528;28;20256;-48
2022/10/08 01:35:15;;;;;;;8.48;5.97;;;16.20;99.90;;;19.21;54.86;97836.13;5024128;28;20049;-47
2022/10/08 01:37:45;;;;;;;8.85;6.38;;;16.20;99.90;;;19.20;54.94;97834.44;5022184;28;20056;-51
2022/10/08 01:40:26;;;;;;;8.25;5.97;;;16.20;99.90;;;19.21;55.07;97837.97;5022692;28;20053;-48
2022/10/08 01:42:57;;;;;;;9.60;5.82;;;16.20;99.90;;;19.21;55.04;97837.97;5022721;28;20374;-49
2022/10/08 01:45:42;;;;;;;10.73;6.72;;;16.20;99.90;;;19.22;54.65;97843.16;5022793;28;20054;-49
2022/10/08 01:48:19;;;;;;;11.40;6.18;;;16.30;99.90;;;19.24;54.86;97837.56;5022175;28;20052;-53
2022/10/08 01:50:47;;;;;;;12.00;7.00;;;16.30;99.90;;;19.24;54.82;97838.38;5022100;28;20050;-48
2022/10/08 01:53:18;;;;;;;9.20;6.32;;;16.30;99.80;;;19.19;55.01;97838.19;5023498;28;20045;-49
2022/10/08 01:55:51;;;;;;;9.27;6.43;;;16.20;99.90;;;19.19;55.02;97840.91;5022296;28;20048;-52
2022/10/08 01:58:33;;;;;;;;;;;16.20;99.90;;;19.23;54.63;97833.19;5022635;28;20050;-50
2022/10/08 02:01:17;;;;;;;10.90;6.68;;;16.20;99.80;;;19.16;54.81;97838.63;5022230;28;20101;-48
2022/10/08 02:04:31;;;;;;;;;;;16.10;99.90;;;19.23;54.65;97830.47;5023557;28;20424;-51
2022/10/08 02:06:38;;;;;;;7.85;6.82;;;16.10;99.90;;;19.18;54.74;97827.63;5038655;28;20001;-52
2022/10/08 02:09:05;;;;;;;10.52;6.22;;;16.00;99.90;;;19.13;54.84;97825.53;5021720;28;20054;-49
2022/10/08 02:11:34;;;;;;;8.68;5.55;;;16.00;99.90;;;19.07;55.00;97819.09;5023077;28;20048;-51
2022/10/08 02:14:04;;;;;;;8.77;7.22;;;16.10;99.90;;;19.02;55.18;97831.59;5023123;28;20045;-51
2022/10/08 02:16:35;;;;;;;12.63;7.05;;;16.00;99.90;;;18.97;55.28;97831.38;5022516;28;20045;-47
2022/10/08 02:19:43;;;;;;;11.30;6.45;;;16.00;99.90;;;18.91;55.29;97822.28;5022092;28;20344;-49
2022/10/08 02:22:17;;;;;;;8.15;6.28;;;16.00;99.90;;;18.89;55.43;97814.38;5023502;28;20125;-50
2022/10/08 02:25:15;;;;;;;8.90;7.07;;;15.90;99.90;;;18.80;55.54;97817.50;5021935;28;20253;-48
2022/10/08 02:28:31;;;;;;;7.40;6.05;;;15.90;99.90;;;18.85;55.41;97821.25;5021345;28;20054;-53
2022/10/08 02:31:36;;;;;;;8.05;6.13;;;15.90;99.90;;;18.86;55.28;97820.22;5028057;28;20057;-49
2022/10/08 02:34:20;;;;;;;13.25;7.05;;;15.90;99.90;;;18.83;55.54;97826.00;5022940;28;20046;-48
2022/10/08 02:36:59;;;;;;;;;;;15.90;99.90;;;18.93;55.34;97824.75;5022687;28;20052;-51
2022/10/08 02:39:32;;;;;;;9.55;6.40;;;15.90;99.90;;;18.92;55.49;97815.00;5022713;28;20231;-47
2022/10/08 02:42:10;;;;;;;9.63;6.75;;;15.90;99.90;;;18.88;55.54;97819.97;5021508;28;20046;-47
2022/10/08 02:44:59;;;;;;;8.68;7.00;;;15.90;99.90;;;18.92;55.48;97826.63;5022805;28;20048;-51
2022/10/08 02:47:32;;;;;;;9.73;6.35;;;16.00;99.90;;;18.91;55.54;97826.84;5021942;28;20352;-51
2022/10/08 02:50:07;;;;;;;7.95;6.68;;;16.00;99.90;;;18.94;55.61;97829.94;5021570;28;20050;-51
2022/10/08 02:52:40;;;;;;;10.98;6.35;;;16.00;99.90;;;18.98;55.42;97831.19;5021395;28;20232;-51
2022/10/08 02:55:28;;;;;;;8.65;6.13;;;16.00;99.90;;;19.02;55.39;97829.72;5021551;28;20340;-54
2022/10/08 02:58:05;;;;;;;9.15;6.65;;;16.10;99.90;;;19.06;55.32;97838.22;5020863;28;20042;-47
2022/10/08 03:00:49;;;;;;;8.45;5.78;;;16.10;99.90;;;19.03;55.29;97835.94;5022557;28;20038;-53
2022/10/08 03:03:34;;;;;;;9.98;5.78;;;16.10;99.90;;;19.04;55.21;97843.81;5021104;28;20042;-50
2022/10/08 03:06:07;;;;;;;7.93;5.95;;;16.10;99.90;;;18.98;55.15;97850.06;5021899;28;20066;-48
2022/10/08 03:08:41;;;;;;;11.95;6.70;;;16.00;99.90;;;18.91;55.62;97851.94;5021912;28;20365;-52
2022/10/08 03:11:10;;;;;;;8.57;6.45;;;16.00;99.90;;;18.81;55.86;97849.66;5023450;28;20049;-53
2022/10/08 03:13:44;;;;;;;7.35;6.20;;;15.80;99.90;;;18.74;56.01;97858.78;5022071;28;20045;-49
2022/10/08 03:16:16;;;;;;;9.95;6.65;;;15.70;99.90;;;18.70;56.20;97864.56;5022784;28;20378;-53
2022/10/08 03:18:45;;;;;;;13.57;8.40;;;15.70;99.90;;;18.72;56.15;97856.28;5022687;28;20188;-53
2022/10/08 03:21:14;;;;;;;10.80;6.97;;;15.60;99.90;;;18.68;56.20;97860.44;5026793;28;20289;-50
2022/10/08 03:23:42;;;;;;;9.60;6.80;;;15.60;99.90;;;18.66;56.21;97862.50;5025502;28;20061;-52
2022/10/08 03:26:10;;;;;;;9.82;7.80;;;15.60;99.90;;;18.64;56.31;97859.19;5026100;28;20374;-50
2022/10/08 03:28:38;;;;;;;8.98;7.13;;;15.50;99.90;;;18.63;56.50;97863.75;5025354;28;20046;-48
2022/10/08 03:31:06;;;;;;;8.48;7.53;;;15.60;99.90;;;18.65;56.44;97874.31;5026150;28;20236;-48
2022/10/08 03:33:34;;;;;;;11.50;7.78;;;15.60;99.90;;;18.66;56.25;97866.03;5025081;28;20229;-51
2022/10/08 03:36:03;;;;;;;13.23;8.05;;;15.60;99.90;;;18.66;56.35;97865.19;5025986;28;20052;-51
2022/10/08 03:38:33;;;;;;;11.02;7.50;;;15.60;99.90;;;18.62;56.46;97872.88;5025222;28;20046;-52
2022/10/08 03:41:01;;;;;;;18.15;8.00;;;15.50;99.90;;;18.53;56.76;97871.41;5026621;28;20058;-50
2022/10/08 03:43:33;;;;;;;12.02;8.27;;;15.50;99.90;;;18.44;56.91;97876.19;5025814;28;20050;-49
2022/10/08 03:46:02;;;;;;;12.65;8.32;;;15.40;99.90;;;18.39;57.01;97872.44;5025153;28;20054;-52
2022/10/08 03:48:30;;;;;;;12.82;9.10;;;15.40;99.90;;;18.27;57.54;97877.63;5025169;28;20050;-51
2022/10/08 03:51:02;;;;;;;12.73;8.20;;;15.30;99.90;;;18.32;57.34;97877.84;5025796;28;20390;-47
2022/10/08 03:53:36;;;;;;;9.52;7.60;;;15.40;99.90;;;18.36;57.43;97881.78;5024540;28;20038;-50
2022/10/08 03:56:09;;;;;;;11.90;8.65;;;15.40;99.90;;;18.42;57.38;97882.81;5025679;28;20121;-48
2022/10/08 03:58:37;;;;;;;12.05;8.75;;;15.40;99.90;;;18.37;57.58;97880.72;5024917;28;20231;-49
2022/10/08 04:01:16;;;;;;;9.98;7.97;;;15.40;99.90;;;18.39;57.49;97891.31;5025480;28;20060;-50
2022/10/08 04:03:44;;;;;;;13.93;9.48;;;15.40;99.90;;;18.42;57.32;97896.31;5026336;28;20050;-47
2022/10/08 04:06:13;;;;;;;16.50;8.82;;;15.40;99.90;;;18.42;57.42;97888.22;5025444;28;20055;-50
2022/10/08 04:08:41;;;;;;;12.25;9.95;;;15.50;99.90;;;18.42;57.31;97890.91;5024633;28;20068;-47
2022/10/08 04:11:14;;;;;;;16.10;9.38;;;15.40;99.90;;;18.40;57.31;97888.41;5024303;28;20060;-50
2022/10/08 04:13:42;;;;;;;12.52;9.13;;;15.40;99.90;;;18.35;57.35;97898.16;5023260;28;20104;-51
2022/10/08 04:16:16;;;;;;;13.10;8.38;;;15.30;99.90;;;18.33;57.61;97901.03;5023929;28;20052;-50
2022/10/08 04:18:46;;;;;;;14.20;9.15;;;15.30;99.90;;;18.34;57.52;97904.56;5024858;28;20256;-48
2022/10/08 04:21:17;;;;;;;14.52;10.13;;;15.30;99.90;;;18.35;57.55;97898.97;5024237;28;20050;-48
2022/10/08 04:23:48;;;;;;;11.38;8.95;;;15.40;99.90;;;18.31;57.80;97892.34;5024598;28;20061;-51
2022/10/08 04:26:16;;;;;;;12.70;9.10;;;15.40;99.90;;;18.32;57.88;97898.53;5023873;28;20060;-51
2022/10/08 04:28:44;;;;;;;13.52;9.80;;;15.30;99.90;;;18.24;57.88;97904.94;5023633;28;20049;-51
2022/10/08 04:31:17;;;;;;;13.00;9.75;;;15.20;99.90;;;18.24;57.73;97905.81;5023806;28;20046;-52
2022/10/08 04:33:46;;;;;;;15.30;9.82;;;15.30;99.90;;;18.23;57.80;97903.31;5021621;28;20046;-48
2022/10/08 04:36:21;;;;;;;12.98;9.40;;;15.20;99.90;;;18.21;57.93;97902.69;5023739;28;20048;-49
2022/10/08 04:38:50;;;;;;;14.10;10.00;;;15.20;99.90;;;18.20;57.74;97911.78;5023682;28;20045;-48
2022/10/08 04:41:21;;;;;;;16.00;10.00;;;15.20;99.90;;;18.17;58.03;97909.53;5023746;28;20048;-49
2022/10/08 04:43:50;;;;;;;17.45;10.90;;;15.20;99.90;;;18.07;58.39;97902.66;5023775;28;20056;-49
2022/10/08 04:46:20;;;;;;;13.70;9.00;;;15.20;99.90;;;18.11;58.23;97919.25;5024214;28;20046;-50
2022/10/08 04:48:53;;;;;;;14.00;9.27;;;15.20;99.90;;;18.02;58.57;97915.06;5023212;28;20046;-48
2022/10/08 04:51:24;;;;;;;15.95;9.32;;;15.10;99.90;;;17.99;58.68;97913.63;5023593;28;20045;-48
2022/10/08 04:53:54;;;;;;;15.10;9.07;;;15.10;99.90;;;18.00;58.50;97917.94;5023608;28;20056;-50
2022/10/08 04:56:25;;;;;;;17.00;9.68;;;15.10;99.90;;;17.95;58.69;97920.44;5023322;28;20041;-48
2022/10/08 04:58:54;;;;;;;17.17;10.98;;;15.00;99.90;;;18.00;58.67;97931.41;5023785;28;20361;-50
2022/10/08 05:01:24;;;;;;;15.15;11.00;;;15.00;99.90;;;17.95;58.99;97927.66;5023234;28;20048;-51
2022/10/08 05:03:55;;;;;;;15.75;10.25;;;15.00;99.90;;;17.84;59.24;97921.00;5023166;28;20052;-51
2022/10/08 05:06:27;;;;;;;15.43;10.82;;;14.90;99.90;;;17.86;58.96;97924.34;5023100;28;20052;-51
2022/10/08 05:08:58;;;;;;;15.52;11.32;;;14.90;99.90;;;17.85;59.12;97919.97;4983283;28;1158185;-49
2022/10/08 05:11:27;;;;;;;16.73;9.98;;;14.90;99.90;;;17.66;59.88;97922.34;5024173;28;20236;-48
2022/10/08 05:13:57;;;;;;;22.10;11.38;;;14.80;99.90;;;17.66;59.87;97925.03;5024231;28;20056;-52
2022/10/08 05:16:26;;;;;;;15.07;10.88;;;14.80;99.90;;;17.61;59.82;97927.50;5024875;28;20370;-51
2022/10/08 05:18:55;;;;;;;15.13;9.98;;;14.70;99.90;;;17.64;59.80;97935.19;5024029;28;20042;-50
2022/10/08 05:21:28;;;;;;;16.48;10.13;;;14.70;99.90;;;17.59;59.97;97928.72;5023976;28;20056;-49
2022/10/08 05:24:07;;;;;;;12.88;9.85;;;14.70;99.90;;;17.59;59.76;97928.72;5023896;28;20049;-47
2022/10/08 05:26:39;;;;;;;14.90;10.15;;;14.70;99.90;;;17.57;59.88;97936.19;5023544;28;20046;-50
2022/10/08 05:29:29;;;;;;;15.25;9.98;;;14.60;99.90;;;17.49;60.12;97934.47;5023859;28;20129;-50
2022/10/08 05:31:56;;;;;;;11.85;9.27;;;14.60;99.90;;;17.35;60.55;97935.41;5024048;28;20054;-48
2022/10/08 05:34:25;;;;;;;13.35;10.35;;;14.50;99.90;;;17.41;60.06;97932.78;5023909;28;20058;-51
2022/10/08 05:36:53;;;;;;;12.73;10.07;;;14.50;99.90;;;17.37;60.21;97938.72;5022308;28;20050;-47
2022/10/08 05:39:21;;;;;;;15.23;8.93;;;14.50;99.90;;;17.25;60.80;97943.81;5022664;28;20048;-50
2022/10/08 05:41:48;;;;;;;13.75;10.35;;;14.40;99.90;;;17.28;60.61;97933.50;5023544;28;20042;-50
2022/10/08 05:44:16;;;;;;;16.65;10.68;;;14.40;99.90;;;17.35;60.24;97948.84;5023638;28;20053;-48
2022/10/08 05:46:44;;;;;;;15.98;10.43;;;14.50;99.90;;;17.39;60.18;97950.13;5023047;28;20046;-48
2022/10/08 05:49:19;;;;;;;19.83;10.20;;;14.50;99.90;;;17.35;60.27;97956.94;5023504;28;20340;-49
2022/10/08 05:51:48;;;;;;;15.77;9.75;;;14.50;99.90;;;17.32;60.62;97952.78;5023561;28;20221;-50
2022/10/08 05:54:17;;;;;;;14.93;9.13;;;14.40;99.90;;;17.32;60.38;97955.47;5023763;28;20050;-49
2022/10/08 05:56:45;;;;;;;24.52;9.85;;;14.40;99.90;;;17.31;60.60;97954.66;5022024;28;20409;-49
2022/10/08 05:59:20;;;;;;;15.68;10.35;;;14.40;99.90;;;17.37;60.35;97955.72;5022953;28;20046;-49
2022/10/08 06:01:50;;;;;;;18.65;11.07;;;14.40;99.90;;;17.32;60.42;97959.00;5023444;28;20042;-49
2022/10/08 06:04:18;;;;;;;13.52;9.55;;;14.40;99.90;;;17.30;60.64;97963.75;5023116;28;20046;-51
2022/10/08 06:06:46;;;;;;;15.43;9.95;;;14.40;99.90;;;17.37;60.45;97963.81;5022833;28;20378;-50
2022/10/08 06:09:18;;;;;;;13.05;9.35;;;14.50;99.90;;;17.34;60.86;97963.34;5022761;28;20046;-51
2022/10/08 06:11:46;;;;;;;13.57;8.77;;;14.50;99.90;;;17.36;60.89;97964.00;5022883;28;20053;-48
2022/10/08 06:14:15;;;;;;;13.85;8.75;;;14.50;99.90;;;17.41;60.56;97964.22;5021810;28;20056;-52
2022/10/08 06:16:43;;;;;;;12.43;8.43;;;14.50;99.90;;;17.34;60.97;97966.88;5022568;28;20049;-49
2022/10/08 06:19:12;;;;;;;13.30;9.68;;;14.50;99.90;;;17.24;61.01;97972.59;5021582;28;20060;-53
2022/10/08 06:21:40;;;;;;;13.52;9.40;;;14.40;99.90;;;17.23;60.94;97976.31;5037118;28;20046;-52
2022/10/08 06:24:11;;;;;;;12.73;8.70;;;14.40;99.90;;;17.35;60.79;97978.47;5023235;28;20345;-49
2022/10/08 06:26:41;;;;;;;14.35;8.90;;;14.40;99.90;;;17.38;60.59;97986.16;5021517;28;20045;-53
2022/10/08 06:29:16;;;;;;;16.48;9.38;;;14.50;99.90;;;17.37;60.67;97987.16;5022997;28;20137;-53
2022/10/08 06:31:45;;;;;;;13.10;8.15;;;14.40;99.90;;;17.38;60.54;97984.28;5022744;28;20340;-49
2022/10/08 06:34:14;;;;;;;15.15;8.45;;;14.50;99.90;;;17.45;60.22;97987.03;5022268;28;20050;-53
2022/10/08 06:36:42;;;;;;;15.02;9.00;;;14.50;99.90;;;17.38;60.40;97983.47;5022096;28;20064;-48
2022/10/08 06:39:13;;;;;;;12.20;8.00;;;14.50;99.90;;;17.25;60.89;97992.25;5022868;28;20059;-51
2022/10/08 06:41:42;;;;;;;14.23;8.35;;;14.40;99.90;;;17.31;60.65;97997.69;5021571;28;20052;-54
2022/10/08 06:44:12;;;;;;;22.15;8.30;;;14.40;99.90;;;17.41;60.07;98004.56;5023138;28;20355;-53
2022/10/08 06:46:41;;;;;;;14.55;7.95;;;14.50;99.90;;;17.39;60.09;98004.81;5022157;28;20636;-49
2022/10/08 06:49:10;;;;;;;12.38;8.27;;;14.50;99.90;;;17.40;60.29;98002.94;5022353;28;20053;-52
2022/10/08 06:51:38;;;;;;;13.68;7.47;;;14.50;99.90;;;17.39;59.95;98007.50;5021815;28;20049;-50
2022/10/08 06:54:06;;;;;;;13.82;9.05;;;14.50;99.90;;;17.08;61.03;98008.69;5022222;28;20049;-50
2022/10/08 06:56:37;;;;;;;14.07;8.38;;;14.40;99.90;;;17.10;61.19;98016.56;5021771;28;20052;-52
2022/10/08 06:59:06;;;;;;;12.27;7.18;;;14.40;99.90;;;17.23;61.00;98019.34;5022411;28;20060;-54
2022/10/08 07:01:34;;;;;;;12.23;7.13;;;14.40;99.90;;;17.18;60.77;98024.50;5020928;28;20049;-51
2022/10/08 07:04:04;;;;;;;12.27;7.13;;;14.40;99.90;;;17.24;60.65;98023.72;5022704;28;20054;-49
2022/10/08 07:06:33;;;;;;;9.98;6.93;;;14.50;99.90;;;17.11;60.42;98028.97;5020113;28;20111;-49
2022/10/08 07:09:01;;;;;;;9.48;7.03;;;14.50;99.90;;;17.16;60.08;98034.63;5022449;28;20046;-49
2022/10/08 07:11:31;;;;;;;11.95;6.38;;;14.50;99.90;;;17.24;59.64;98037.16;5022310;28;20052;-53
2022/10/08 07:14:00;;;;;;;10.00;5.70;;;14.50;99.90;;;17.34;59.38;98023.38;5022331;28;20041;-48
2022/10/08 07:16:28;;;;;;;10.00;4.85;;;14.60;99.90;;;17.18;59.37;98027.19;5020705;28;20050;-49
2022/10/08 07:18:59;;;;;;;10.93;5.30;;;14.60;99.90;;;17.24;59.08;98030.97;5021100;28;20056;-51
2022/10/08 07:21:29;;;;;;;10.75;5.95;;;14.60;99.90;;;17.28;59.04;98037.63;5022468;28;20057;-49
2022/10/08 07:24:00;;;;;;;7.80;4.45;;;14.70;99.90;;;17.39;58.95;98038.94;5021877;28;20247;-49
2022/10/08 07:26:33;;;;;;;9.82;4.90;;;14.80;99.90;;;17.57;57.92;98036.59;5021756;28;20064;-53
2022/10/08 07:29:11;;;;;;;;;;;14.90;99.90;;;17.16;56.64;98037.31;5021950;28;20225;-52
2022/10/08 07:31:40;;;;;;;11.77;4.10;;;14.80;99.90;;;17.26;55.89;98034.28;5022165;28;19921;-51
2022/10/08 07:34:11;;;;;;;8.27;4.25;;;14.80;99.60;;;16.96;54.98;98055.13;5021948;28;20060;-50
2022/10/08 07:36:40;;;;;;;9.10;3.97;;;14.70;95.50;;;17.04;55.66;98058.53;5021714;28;20038;-52
2022/10/08 07:39:14;;;;;;;7.63;3.78;;;14.60;98.30;;;16.99;55.20;98062.81;5021678;28;20050;-53
2022/10/08 07:41:42;;;;;;;6.93;3.80;;;14.70;95.60;;;17.05;52.95;98054.78;5021996;28;20076;-53
2022/10/08 07:44:11;;;;;;;4.43;2.55;;;14.70;90.20;;;17.23;51.72;98072.34;5021938;28;20046;-53
2022/10/08 07:46:45;;;;;;;9.25;3.45;;;14.70;87.80;;;17.13;51.84;98064.59;5021844;28;20052;-52
2022/10/08 07:49:15;;;;;;;11.13;4.10;;;14.80;86.20;;;17.47;50.24;98074.63;5022154;28;20073;-53
2022/10/08 07:51:43;;;;;;;13.07;4.40;;;15.00;79.20;;;17.50;50.31;98074.22;5022241;28;20054;-49
2022/10/08 07:54:17;;;;;;;7.40;2.95;;;15.00;83.70;;;17.48;49.11;98067.38;5022645;28;20230;-54
2022/10/08 07:56:45;;;;;;;9.85;3.60;;;15.00;76.20;;;17.58;48.88;98067.03;5020049;28;20219;-52
2022/10/08 07:59:13;;;;;;;11.20;3.33;;;15.10;76.00;;;17.56;49.21;98069.91;5021877;28;20229;-51
2022/10/08 08:01:42;;;;;;;6.53;3.15;;;15.10;77.30;;;17.62;48.80;98076.38;5022202;28;20073;-50
2022/10/08 08:04:11;;;;;;;11.10;2.85;;;15.10;73.50;;;17.64;47.65;98075.19;5025542;28;20049;-53
2022/10/08 08:06:43;;;;;;;5.85;3.03;;;15.10;71.60;;;17.38;46.74;98075.78;5023914;28;20068;-53
2022/10/08 08:09:13;;;;;;;9.77;2.70;;;15.10;68.50;;;17.54;47.47;98077.34;5024217;28;20053;-49
2022/10/08 08:11:41;;;;;;;10.40;3.10;;;15.10;70.50;;;17.52;47.49;98074.88;5024043;28;20046;-52
2022/10/08 08:14:09;;;;;;;12.30;4.57;;;15.00;70.60;;;17.48;47.65;98073.56;5024993;28;20060;-49
2022/10/08 08:16:38;;;;;;;5.25;2.90;;;15.10;71.70;;;17.48;47.52;98078.97;5024536;28;20042;-48
2022/10/08 08:19:07;;;;;;;7.88;3.40;;;15.10;70.30;;;17.46;47.45;98080.19;5025179;28;20050;-50
2022/10/08 08:21:37;;;;;;;7.43;3.50;;;15.10;68.90;;;17.30;47.59;98074.06;5025013;28;20364;-48
2022/10/08 08:24:12;;;;;;;6.63;2.85;;;15.00;69.80;;;17.26;47.70;98088.09;5023828;28;20080;-48
2022/10/08 08:26:42;;;;;;;4.63;2.55;;;15.10;69.70;;;17.19;48.47;98089.88;5023713;28;20267;-51
2022/10/08 08:29:17;;;;;;;9.68;2.88;;;15.10;71.00;;;17.34;48.58;98090.66;5024939;28;20366;-47
2022/10/08 08:31:48;;;;;;;8.15;2.78;;;15.20;71.20;;;17.48;48.41;98088.91;5024755;28;20042;-48
2022/10/08 08:34:23;;;;;;;9.02;3.28;;;15.30;71.30;;;17.61;47.69;98091.72;5023651;28;20050;-49
2022/10/08 08:36:52;;;;;;;5.15;2.33;;;15.30;69.00;;;17.73;47.62;98096.56;5024320;28;20214;-53
2022/10/08 08:39:26;;;;;;;7.20;2.38;;;15.40;69.60;;;17.60;46.61;98103.53;5024672;28;20370;-51
2022/10/08 08:42:38;;;;;;;10.20;3.40;;;15.30;67.00;;;17.74;46.31;98101.75;5024686;28;20058;-51
2022/10/08 08:45:27;;;;;;;10.25;3.00;;;15.30;65.30;;;17.77;46.29;98103.22;5023539;28;20140;-52
2022/10/08 08:48:21;;;;;;;8.63;2.90;;;15.40;65.30;;;17.96;45.81;98112.50;5023502;28;20057;-47
2022/10/08 08:50:52;;;;;;;5.28;2.85;;;15.40;66.90;;;17.83;45.03;98105.94;5024527;28;20050;-48
2022/10/08 08:53:21;;;;;;;10.45;2.40;;;15.40;63.60;;;18.03;45.52;98102.56;5023337;28;20227;-50
2022/10/08 08:55:54;;;;;;;9.50;2.90;;;15.50;65.70;;;18.07;45.94;98107.41;5024555;28;20046;-50
2022/10/08 08:58:57;;;;;;;7.13;3.45;;;15.50;67.00;;;18.20;45.64;98100.41;5023000;28;20056;-49
2022/10/08 09:01:40;;;;;;;6.63;2.60;;;15.60;65.70;;;18.08;45.01;98103.66;5024673;28;20060;-51
2022/10/08 09:04:32;;;;;;;9.85;3.60;;;15.60;62.60;;;17.79;44.67;98101.16;5022942;28;20053;-49
2022/10/08 09:07:07;;;;;;;7.32;2.53;;;15.50;64.10;;;17.88;44.64;98111.63;5023966;28;20054;-51
2022/10/08 09:09:39;;;;;;;8.18;2.70;;;15.40;62.60;;;17.43;44.70;98110.22;5024258;28;20054;-47
2022/10/08 09:12:36;;;;;;;9.60;2.58;;;15.30;61.40;;;17.73;45.33;98108.16;5024631;28;20060;-50
2022/10/08 09:15:18;;;;;;;8.60;2.97;;;15.30;64.70;;;17.89;45.24;98121.38;5022076;28;20042;-52
2022/10/08 09:17:51;;;;;;;7.43;2.83;;;15.40;64.00;;;17.78;45.32;98113.78;5023619;28;20046;-50
2022/10/08 09:20:24;;;;;;;8.27;2.75;;;15.40;64.70;;;18.07;45.09;98115.47;5022830;28;20053;-48
2022/10/08 09:22:55;;;;;;;8.60;3.28;;;15.50;64.50;;;17.98;44.90;98121.22;5022483;28;20268;-50
2022/10/08 09:25:30;;;;;;;9.70;3.33;;;15.50;64.20;;;18.08;45.13;98124.38;5024352;28;20053;-51
2022/10/08 09:28:04;;;;;;;7.82;4.38;;;15.50;64.00;;;18.18;45.23;98124.03;5023333;28;20050;-52
2022/10/08 09:30:43;;;;;;;7.00;2.90;;;15.60;64.90;;;17.82;45.62;98138.47;5023652;28;20059;-50
2022/10/08 09:33:23;;;;;;;5.97;3.10;;;15.60;64.60;;;17.85;45.76;98138.09;5023430;28;20045;-48
2022/10/08 09:35:52;;;;;;;6.90;3.35;;;15.60;64.30;;;18.18;45.64;98134.81;5022716;28;20256;-51
2022/10/08 09:38:48;;;;;;;8.05;2.58;;;15.80;64.90;;;18.26;45.05;98143.56;5023322;28;20042;-50
2022/10/08 09:41:18;;;;;;;9.00;3.28;;;15.80;64.20;;;18.20;44.29;98135.44;5024735;28;20060;-47
2022/10/08 09:44:17;;;;;;;7.30;3.03;;;15.70;61.30;;;17.77;44.34;98146.31;5022660;28;20229;-53
2022/10/08 09:46:46;;;;;;;11.15;2.95;;;15.60;62.00;;;18.20;44.71;98144.34;5022954;28;20358;-48
2022/10/08 09:49:30;;;;;;;10.50;2.85;;;15.70;63.40;;;17.98;42.96;98146.28;5023267;28;20068;-52
2022/10/08 09:52:20;;;;;;;10.43;3.20;;;15.70;60.10;;;18.17;43.90;98138.53;5023345;28;20046;-52
2022/10/08 09:54:57;;;;;;;6.03;2.50;;;15.80;61.30;;;17.86;42.10;98146.00;5022459;28;20056;-49
2022/10/08 09:57:27;;;;;;;9.23;2.63;;;15.80;57.70;;;17.99;42.46;98144.41;5023035;28;20271;-49
2022/10/08 10:00:04;;;;;;;8.27;2.45;;;15.70;57.50;;;18.13;42.62;98134.59;5024236;28;20252;-47
2022/10/08 10:02:37;;;;;;;5.30;2.85;;;15.80;58.70;;;18.10;42.48;98138.47;5023084;28;20272;-48
2022/10/08 10:05:20;;;;;;;7.97;2.27;;;15.80;58.00;;;18.20;43.08;98135.44;5021414;28;20053;-51
2022/10/08 10:07:48;;;;;;;9.25;2.65;;;15.90;59.00;;;18.30;42.60;98141.31;5021661;28;20345;-51
2022/10/08 10:10:47;;;;;;;5.40;2.33;;;16.00;58.80;;;18.13;42.03;98148.88;5024132;28;20223;-52
2022/10/08 10:13:36;;;;;;;8.40;3.10;;;16.00;56.80;;;18.33;42.54;98140.91;5021863;28;20233;-50
2022/10/08 10:16:31;;;;;;;6.22;3.22;;;16.10;58.50;;;18.47;41.78;98145.31;5022245;28;20213;-48
2022/10/08 10:19:24;;;;;;;4.20;2.70;;;16.30;59.20;;;18.22;41.41;98149.53;5022779;28;20041;-51
2022/10/08 10:22:13;;;;;;;6.10;2.88;;;16.10;55.50;;;18.32;41.94;98150.03;5021818;28;20046;-50
2022/10/08 10:25:47;;;;;;;8.68;2.95;;;16.10;56.70;;;17.84;41.62;98153.44;5022564;28;20067;-47
2022/10/08 10:28:49;;;;;;;5.45;2.92;;;16.00;55.60;;;18.23;42.27;98152.03;5059858;28;20052;-50
2022/10/08 10:32:16;;;;;;;8.00;3.72;;;16.00;57.50;;;18.02;42.19;98144.03;5051426;28;20415;-50
2022/10/08 10:35:19;;;;;;;11.07;3.50;;;16.00;56.90;;;18.05;41.85;98154.44;5023066;28;20048;-50
2022/10/08 10:38:12;;;;;;;4.95;2.33;;;15.90;56.40;;;17.90;42.11;98144.56;5022184;28;20052;-51
2022/10/08 10:41:02;;;;;;;7.00;3.35;;;15.90;57.00;;;17.95;42.75;98153.91;5022123;28;20060;-53
2022/10/08 10:43:59;;;;;;;8.63;3.55;;;15.90;57.40;;;18.23;41.46;98156.59;5021081;28;20060;-49
2022/10/08 10:46:33;;;;;;;5.97;2.90;;;16.10;57.50;;;18.61;41.55;98153.47;5021091;28;20056;-53
2022/10/08 10:49:01;;;;;;;;;;;16.20;57.20;;;18.39;41.51;98148.19;5023084;28;20046;-48
2022/10/08 10:51:48;;;;;;;8.77;3.83;;;16.20;56.70;;;18.36;41.58;98148.59;5021405;28;19940;-48
2022/10/08 10:55:09;;;;;;;8.48;3.53;;;16.10;57.10;;;18.29;41.11;98158.50;5022443;28;20042;-50